Time;durP1;ratioP1;P1;durP2;ratioP2;P2;SDS_P1;SDS_P2;PMS_P1;PMS_P2;Temp;Humidity;BMP_temperature;BMP_pressure;BME280_temperature;BME280_humidity;BME280_pressure;Samples;Min_cycle;Max_cycle;Signal;HPM_P1;HPM_P2
2022/12/05 00:01:35;;;;;;;15.93;7.12;;;;;;;-7.99;100.00;101670.36;1751980;82;21007;-71
2022/12/05 00:04:05;;;;;;;14.60;4.90;;;;;;;-7.94;100.00;101675.72;1751264;82;21103;-69
2022/12/05 00:06:32;;;;;;;12.13;5.22;;;;;;;-7.91;100.00;101678.14;1751969;82;21023;-68
2022/12/05 00:09:00;;;;;;;10.93;4.72;;;;;;;-7.95;100.00;101672.69;1751932;82;21146;-68
2022/12/05 00:11:29;;;;;;;11.73;4.75;;;;;;;-7.91;100.00;101672.85;1751889;82;21007;-68
2022/12/05 00:13:57;;;;;;;9.75;4.40;;;;;;;-7.91;100.00;101674.65;1751511;82;21149;-68
2022/12/05 00:16:25;;;;;;;8.93;4.22;;;;;;;-7.91;100.00;101666.72;1752802;82;20999;-69
2022/12/05 00:18:51;;;;;;;16.48;6.05;;;;;;;-7.91;100.00;101672.00;1752763;82;21502;-69
2022/12/05 00:21:22;;;;;;;11.55;4.72;;;;;;;-7.96;100.00;101670.98;1752919;82;20995;-69
2022/12/05 00:23:49;;;;;;;12.45;4.62;;;;;;;-7.96;100.00;101667.03;1752388;82;21552;-70
2022/12/05 00:26:15;;;;;;;13.85;4.87;;;;;;;-7.99;100.00;101665.07;1752915;82;21035;-70
2022/12/05 00:28:42;;;;;;;14.13;4.35;;;;;;;-8.01;100.00;101661.70;1752869;82;21715;-70
2022/12/05 00:31:11;;;;;;;10.32;3.87;;;;;;;-8.04;100.00;101657.45;1753149;82;21031;-68
2022/12/05 00:33:38;;;;;;;9.90;3.98;;;;;;;-8.03;100.00;101664.44;1742710;81;21103;-67
2022/12/05 00:36:15;;;;;;;11.85;4.67;;;;;;;-8.07;100.00;101660.31;1738842;82;21498;-68
2022/12/05 00:38:42;;;;;;;;;;;;;;;-8.10;100.00;101662.70;1740467;82;21107;-67
2022/12/05 00:41:11;;;;;;;8.45;4.30;;;;;;;-8.10;100.00;101664.02;1738646;81;20182;-67
2022/12/05 00:43:38;;;;;;;11.57;5.47;;;;;;;-8.14;100.00;101659.89;1737070;82;21094;-67
2022/12/05 00:46:09;;;;;;;11.12;4.50;;;;;;;-8.15;100.00;101661.34;1737792;82;21098;-67
2022/12/05 00:48:36;;;;;;;9.53;4.30;;;;;;;-8.15;100.00;101659.52;1737578;81;21071;-67
2022/12/05 00:51:06;;;;;;;8.95;3.95;;;;;;;-8.14;100.00;101657.72;1737955;82;21047;-68
2022/12/05 00:53:32;;;;;;;9.73;3.62;;;;;;;-8.18;100.00;101652.27;1737333;82;21138;-68
2022/12/05 00:56:09;;;;;;;10.60;4.83;;;;;;;-8.19;100.00;101658.53;1737893;82;21031;-68
2022/12/05 00:58:35;;;;;;;16.02;4.20;;;;;;;-8.19;100.00;101652.78;1736186;82;21645;-68
2022/12/05 01:01:11;;;;;;;8.55;4.05;;;;;;;-8.23;100.00;101642.05;1738305;82;21019;-67
2022/12/05 01:03:38;;;;;;;9.85;4.47;;;;;;;-8.25;100.00;101646.56;1737871;82;21110;-67
2022/12/05 01:06:05;;;;;;;12.45;4.20;;;;;;;-8.30;100.00;101648.73;1738035;82;21429;-68
2022/12/05 01:08:33;;;;;;;12.78;4.12;;;;;;;-8.32;100.00;101646.65;1737557;82;21142;-67
2022/12/05 01:11:00;;;;;;;10.40;4.15;;;;;;;-8.33;100.00;101637.53;1717176;82;21517;-68
2022/12/05 01:13:27;;;;;;;13.08;4.55;;;;;;;-8.32;100.00;101642.69;1737629;82;21079;-68
2022/12/05 01:15:53;;;;;;;13.65;4.28;;;;;;;-8.36;100.00;101634.59;1737809;82;21000;-68
2022/12/05 01:18:20;;;;;;;12.33;4.60;;;;;;;-8.37;100.00;101634.72;1737668;82;21090;-68
2022/12/05 01:20:46;;;;;;;;;;;;;;;-8.39;100.00;101632.64;1740409;82;21052;-68
2022/12/05 01:23:13;;;;;;;11.70;4.75;;;;;;;-8.43;100.00;101628.04;1737521;81;20158;-68
2022/12/05 01:25:41;;;;;;;;;;;;;;;-8.49;100.00;101620.55;1740244;82;21091;-69
2022/12/05 01:28:08;;;;;;;13.00;4.50;;;;;;;-8.52;100.00;101622.55;1737259;82;20571;-69
2022/12/05 01:30:40;;;;;;;14.03;5.17;;;;;;;-8.57;100.00;101610.50;1737635;82;21078;-69
2022/12/05 01:33:06;;;;;;;15.93;4.90;;;;;;;-8.54;100.00;101617.86;1744065;82;21098;-68
2022/12/05 01:35:34;;;;;;;13.75;4.72;;;;;;;-8.56;100.00;101608.70;1753158;82;20995;-69
2022/12/05 01:38:01;;;;;;;14.43;5.30;;;;;;;-8.59;100.00;101617.69;1753001;82;21106;-68
2022/12/05 01:40:27;;;;;;;12.15;5.80;;;;;;;-8.57;100.00;101618.89;1753155;82;21018;-69
2022/12/05 01:42:54;;;;;;;16.17;5.15;;;;;;;-8.55;100.00;101622.76;1753006;82;21110;-68
2022/12/05 01:45:37;;;;;;;12.55;5.00;;;;;;;-8.50;100.00;101614.06;1753360;82;21022;-68
2022/12/05 01:48:08;;;;;;;13.55;5.40;;;;;;;-8.50;100.00;101616.70;1752675;82;21047;-68
2022/12/05 01:50:35;;;;;;;14.07;6.12;;;;;;;-8.52;100.00;101606.70;1753129;82;21464;-68
2022/12/05 01:53:02;;;;;;;15.68;4.95;;;;;;;-8.55;100.00;101608.23;1725575;82;21095;-68
2022/12/05 01:55:28;;;;;;;12.25;5.30;;;;;;;-8.61;100.00;101608.19;1701738;82;20984;-68
2022/12/05 01:57:55;;;;;;;16.20;5.58;;;;;;;-8.63;100.00;101601.68;1753280;82;21608;-68
2022/12/05 02:00:21;;;;;;;16.27;5.40;;;;;;;-8.61;100.00;101606.87;1702091;82;20967;-69
2022/12/05 02:02:57;;;;;;;16.55;5.03;;;;;;;-8.60;100.00;101604.11;1753051;82;21015;-68
2022/12/05 02:05:33;;;;;;;14.25;5.12;;;;;;;-8.56;100.00;101612.67;1753189;82;21473;-68
2022/12/05 02:08:02;;;;;;;13.00;5.20;;;;;;;-8.51;100.00;101609.72;1752265;82;21051;-68
2022/12/05 02:10:32;;;;;;;19.87;7.60;;;;;;;-8.52;100.00;101612.83;1752851;82;21427;-68
2022/12/05 02:13:03;;;;;;;15.03;7.67;;;;;;;-8.55;100.00;101614.37;1752127;82;21153;-68
2022/12/05 02:15:47;;;;;;;18.23;6.95;;;;;;;-8.57;100.00;101618.07;1751181;81;21576;-68
2022/12/05 02:18:27;;;;;;;12.20;4.97;;;;;;;-8.60;100.00;101612.03;1751486;82;21113;-68
2022/12/05 02:21:33;;;;;;;10.40;5.20;;;;;;;-8.59;100.00;101619.02;1739488;82;21070;-68
2022/12/05 02:24:30;;;;;;;10.70;4.95;;;;;;;-8.59;100.00;101622.97;1751916;81;21070;-68
2022/12/05 02:27:29;;;;;;;13.10;5.12;;;;;;;-8.62;100.00;101625.82;1752224;82;21027;-68
2022/12/05 02:30:09;;;;;;;10.98;4.50;;;;;;;-8.62;100.00;101616.58;1752504;82;21015;-68
2022/12/05 02:32:50;;;;;;;13.58;5.33;;;;;;;-8.62;100.00;101617.91;1743766;81;21141;-68
2022/12/05 02:35:37;;;;;;;12.50;5.70;;;;;;;-8.64;100.00;101617.61;1752125;82;20995;-68
2022/12/05 02:38:12;;;;;;;11.53;4.85;;;;;;;-8.65;100.00;101619.44;1698308;82;21132;-68
2022/12/05 02:40:53;;;;;;;13.30;5.12;;;;;;;-8.66;100.00;101616.41;1751849;82;21552;-68
2022/12/05 02:43:31;;;;;;;11.40;3.90;;;;;;;-8.68;100.00;101619.61;1751647;82;21110;-68
2022/12/05 02:45:59;;;;;;;10.55;4.60;;;;;;;-8.70;100.00;101620.20;1752051;82;21022;-68
2022/12/05 02:48:27;;;;;;;9.55;3.95;;;;;;;-8.69;100.00;101619.27;1751623;82;21616;-68
2022/12/05 02:50:53;;;;;;;12.07;3.62;;;;;;;-8.69;100.00;101616.63;1753258;82;20980;-68
2022/12/05 02:53:22;;;;;;;9.50;3.62;;;;;;;-8.72;100.00;101619.48;1753116;82;21038;-68
2022/12/05 02:55:48;;;;;;;;;;;;;;;-8.73;100.00;101618.24;1756009;82;20964;-68
2022/12/05 02:58:22;;;;;;;10.63;3.55;;;;;;;-8.76;100.00;101619.30;1753059;82;20414;-68
2022/12/05 03:00:49;;;;;;;12.70;3.80;;;;;;;-8.80;100.00;101613.85;1753116;82;20983;-68
2022/12/05 03:03:18;;;;;;;14.20;6.50;;;;;;;-8.77;100.00;101616.28;1753012;82;21609;-68
2022/12/05 03:06:11;;;;;;;16.05;4.50;;;;;;;-8.76;100.00;101606.58;1753094;82;20999;-68
2022/12/05 03:08:43;;;;;;;13.22;5.30;;;;;;;-8.77;100.00;101607.05;1670232;85;21191;-68
2022/12/05 03:11:09;;;;;;;11.43;4.97;;;;;;;-8.78;100.00;101606.66;1692137;85;21398;-68
2022/12/05 03:13:44;;;;;;;11.57;4.55;;;;;;;-8.82;100.00;101607.81;1691840;85;21067;-68
2022/12/05 03:16:15;;;;;;;13.32;4.85;;;;;;;-8.82;100.00;101618.38;1688985;85;21059;-68
2022/12/05 03:18:48;;;;;;;12.40;4.37;;;;;;;-8.79;100.00;101612.91;1692016;85;21137;-68
2022/12/05 03:21:25;;;;;;;11.88;4.33;;;;;;;-8.76;100.00;101610.53;1692458;85;21102;-68
2022/12/05 03:24:00;;;;;;;15.35;4.75;;;;;;;-8.79;100.00;101608.95;1692105;85;21165;-67
2022/12/05 03:26:53;;;;;;;11.73;5.20;;;;;;;-8.78;100.00;101612.41;1695114;84;21573;-68
2022/12/05 03:29:44;;;;;;;12.43;5.28;;;;;;;-8.80;100.00;101611.69;1666721;85;21096;-67
2022/12/05 03:32:25;;;;;;;14.75;4.95;;;;;;;-8.76;100.00;101610.53;1651261;86;21123;-68
2022/12/05 03:35:22;;;;;;;11.93;4.50;;;;;;;-8.71;100.00;101610.58;1649324;86;21422;-68
2022/12/05 03:38:15;;;;;;;12.05;4.42;;;;;;;-8.71;100.00;101604.45;1647303;87;21618;-68
2022/12/05 03:40:50;;;;;;;12.33;5.53;;;;;;;-8.71;100.00;101608.41;1647287;87;21641;-68
2022/12/05 03:43:28;;;;;;;9.30;4.60;;;;;;;-8.72;100.00;101606.27;1646990;87;21127;-68
2022/12/05 03:46:02;;;;;;;13.60;4.87;;;;;;;-8.73;100.00;101605.89;1647500;87;21092;-69
2022/12/05 03:48:54;;;;;;;19.25;5.70;;;;;;;-8.75;100.00;101603.00;1646825;87;21151;-68
2022/12/05 03:51:24;;;;;;;9.60;4.65;;;;;;;-8.78;100.00;101601.38;1647115;87;21044;-69
2022/12/05 03:53:58;;;;;;;12.60;4.50;;;;;;;-8.84;100.00;101601.80;1648204;87;21084;-68
2022/12/05 03:56:42;;;;;;;12.43;5.17;;;;;;;-8.83;100.00;101598.23;1648596;87;21472;-68
2022/12/05 03:59:19;;;;;;;12.47;5.00;;;;;;;-8.85;100.00;101603.21;1645139;86;21099;-68
2022/12/05 04:01:46;;;;;;;11.12;5.12;;;;;;;-8.89;100.00;101602.57;1661423;86;20983;-69
2022/12/05 04:04:27;;;;;;;17.80;5.55;;;;;;;-8.85;100.00;101606.70;1670702;86;21055;-68
2022/12/05 04:06:54;;;;;;;12.03;4.08;;;;;;;-8.84;100.00;101600.95;1671004;86;21034;-67
2022/12/05 04:09:28;;;;;;;13.10;4.72;;;;;;;-8.84;100.00;101603.59;1670712;86;21565;-68
2022/12/05 04:12:02;;;;;;;14.47;5.05;;;;;;;-8.83;100.00;101599.55;1670635;86;21019;-68
2022/12/05 04:14:47;;;;;;;12.85;5.65;;;;;;;-8.84;100.00;101596.52;1670571;86;21055;-69
2022/12/05 04:17:41;;;;;;;14.73;5.42;;;;;;;-8.82;100.00;101591.16;1684230;84;21126;-68
2022/12/05 04:23:13;;;;;;;13.25;5.25;;;;;;;-8.85;100.00;101584.27;1676673;84;21467;-68
2022/12/05 04:25:57;;;;;;;13.68;5.87;;;;;;;-8.87;100.00;101586.17;1699308;84;20997;-68
2022/12/05 04:28:31;;;;;;;16.85;5.92;;;;;;;-8.90;100.00;101586.39;1699038;84;21082;-68
2022/12/05 04:31:10;;;;;;;11.48;5.37;;;;;;;-8.94;100.00;101580.09;1699319;84;21538;-68
2022/12/05 04:33:59;;;;;;;11.57;5.33;;;;;;;-8.96;100.00;101577.53;1698736;83;21075;-68
2022/12/05 04:36:50;;;;;;;14.75;4.90;;;;;;;-8.97;100.00;101582.47;1682736;84;21003;-68
2022/12/05 04:39:24;;;;;;;9.93;4.90;;;;;;;-8.97;100.00;101584.25;1670446;86;21039;-68
2022/12/05 04:41:54;;;;;;;9.33;4.30;;;;;;;-9.00;100.00;101580.50;1670754;86;20995;-68
2022/12/05 04:44:24;;;;;;;14.38;5.53;;;;;;;-9.02;100.00;101577.11;1717518;83;21066;-68
2022/12/05 04:46:51;;;;;;;12.45;4.87;;;;;;;-9.05;100.00;101577.31;1689232;83;20975;-68
2022/12/05 04:49:20;;;;;;;;;;;;;;;-9.05;100.00;101574.20;1691778;83;21051;-67
2022/12/05 04:51:50;;;;;;;11.05;4.78;;;;;;;-9.07;100.00;101573.48;1717025;83;20117;-68
2022/12/05 04:54:31;;;;;;;13.08;5.50;;;;;;;-9.11;100.00;101575.94;1716889;83;21027;-68
2022/12/05 04:57:14;;;;;;;11.33;4.80;;;;;;;-9.09;100.00;101581.48;1716519;83;20960;-68
2022/12/05 04:59:41;;;;;;;10.35;5.40;;;;;;;-9.06;100.00;101579.10;1724936;82;21000;-66
2022/12/05 05:02:09;;;;;;;10.53;4.80;;;;;;;-9.05;100.00;101575.52;1688910;83;21035;-68
2022/12/05 05:04:39;;;;;;;13.38;5.00;;;;;;;-9.05;100.00;101575.99;1716854;83;21003;-68
2022/12/05 05:07:08;;;;;;;17.20;5.30;;;;;;;-9.06;100.00;101569.86;1716677;83;21070;-66
2022/12/05 05:09:35;;;;;;;10.43;4.45;;;;;;;-9.04;100.00;101577.23;1717543;83;21058;-68
2022/12/05 05:12:01;;;;;;;12.68;4.83;;;;;;;-9.05;100.00;101570.25;1717610;83;21007;-67
2022/12/05 05:14:28;;;;;;;12.18;5.22;;;;;;;-9.03;100.00;101572.30;1716696;83;21062;-67
2022/12/05 05:16:55;;;;;;;;;;;;;;;-8.99;100.00;101580.38;1719053;83;21478;-68
2022/12/05 05:19:21;;;;;;;14.35;5.97;;;;;;;-8.98;100.00;101578.59;1716450;83;20574;-68
2022/12/05 05:21:47;;;;;;;20.23;7.55;;;;;;;-9.07;100.00;101576.58;1716294;83;21098;-67
2022/12/05 05:24:17;;;;;;;13.98;5.80;;;;;;;-9.10;100.00;101586.84;1716654;83;21066;-67
2022/12/05 05:26:44;;;;;;;15.32;5.83;;;;;;;-9.13;100.00;101585.73;1716566;83;21550;-68
2022/12/05 05:29:16;;;;;;;16.30;5.92;;;;;;;-9.12;100.00;101592.70;1716222;83;21082;-67
2022/12/05 05:31:42;;;;;;;15.88;6.65;;;;;;;-9.10;100.00;101591.65;1715896;83;21545;-68
2022/12/05 05:34:09;;;;;;;12.58;5.15;;;;;;;-9.07;100.00;101594.58;1718690;83;21081;-68
2022/12/05 05:36:35;;;;;;;20.95;5.80;;;;;;;-9.05;100.00;101596.63;1722183;83;21588;-68
2022/12/05 05:39:04;;;;;;;20.17;6.40;;;;;;;-9.02;100.00;101595.58;1721905;83;21165;-68
2022/12/05 05:41:33;;;;;;;17.42;6.33;;;;;;;-9.01;100.00;101603.88;1722027;83;21066;-68
2022/12/05 05:44:00;;;;;;;16.60;6.22;;;;;;;-9.00;100.00;101598.98;1721631;83;21114;-68
2022/12/05 05:46:28;;;;;;;;;;;;;;;-9.00;100.00;101597.66;1724411;83;21133;-68
2022/12/05 05:48:55;;;;;;;15.80;5.90;;;;;;;-9.00;100.00;101597.19;1721400;83;20129;-68
2022/12/05 05:51:21;;;;;;;16.55;5.53;;;;;;;-9.02;100.00;101606.98;1721619;83;21005;-68
2022/12/05 05:53:47;;;;;;;14.40;5.83;;;;;;;-9.00;100.00;101606.42;1727694;82;21047;-68
2022/12/05 05:56:16;;;;;;;14.40;6.72;;;;;;;-8.98;100.00;101608.94;1733089;82;21046;-68
2022/12/05 05:58:42;;;;;;;18.10;7.60;;;;;;;-9.01;100.00;101612.64;1722496;83;21059;-68
2022/12/05 06:01:12;;;;;;;19.32;7.80;;;;;;;-8.96;100.00;101614.98;1722833;83;21485;-68
2022/12/05 06:03:39;;;;;;;24.85;9.50;;;;;;;-8.90;100.00;101617.20;1721944;83;21103;-68
2022/12/05 06:06:07;;;;;;;;;;;;;;;-8.90;100.00;101610.14;1725297;83;20995;-68
2022/12/05 06:08:35;;;;;;;19.32;7.05;;;;;;;-8.83;100.00;101617.17;1722698;83;20112;-68
2022/12/05 06:11:06;;;;;;;15.95;7.40;;;;;;;-8.78;100.00;101613.27;1722384;83;21847;-67
2022/12/05 06:13:33;;;;;;;18.70;6.95;;;;;;;-8.72;100.00;101615.98;1722281;83;21046;-68
2022/12/05 06:15:59;;;;;;;15.90;7.12;;;;;;;-8.66;100.00;101609.81;1722619;83;21470;-67
2022/12/05 06:18:26;;;;;;;;;;;;;;;-8.61;100.00;101610.33;1725685;83;21101;-68
2022/12/05 06:20:53;;;;;;;18.57;6.22;;;;;;;-8.55;100.00;101608.23;1723017;83;20108;-68
2022/12/05 06:23:20;;;;;;;18.05;7.15;;;;;;;-8.56;100.00;101606.06;1722747;83;21129;-68
2022/12/05 06:25:50;;;;;;;25.70;9.00;;;;;;;-8.54;100.00;101610.78;1721977;83;21038;-68
2022/12/05 06:28:17;;;;;;;29.27;8.85;;;;;;;-8.46;100.00;101605.80;1721936;83;21628;-68
2022/12/05 06:30:45;;;;;;;24.27;9.90;;;;;;;-8.42;100.00;101602.48;1722935;83;21066;-68
2022/12/05 06:33:11;;;;;;;26.77;9.83;;;;;;;-8.36;100.00;101590.19;1723213;83;21065;-68
2022/12/05 06:35:38;;;;;;;24.20;9.25;;;;;;;-8.31;100.00;101584.09;1723072;83;21521;-68
2022/12/05 06:38:05;;;;;;;19.10;8.10;;;;;;;-8.24;100.00;101566.84;1723147;83;21133;-68
2022/12/05 06:40:32;;;;;;;20.43;8.63;;;;;;;-8.20;100.00;101577.09;1722977;83;21040;-67
2022/12/05 06:42:58;;;;;;;17.95;8.10;;;;;;;-8.16;100.00;101569.80;1722963;83;21559;-69
2022/12/05 06:45:25;;;;;;;20.43;8.35;;;;;;;-8.11;100.00;101572.94;1723082;83;21066;-68
2022/12/05 06:47:51;;;;;;;16.32;7.62;;;;;;;-8.06;100.00;101571.69;1723084;83;21043;-69
2022/12/05 06:50:18;;;;;;;;;;;;;;;-7.99;100.00;101574.73;1725862;83;21486;-69
2022/12/05 06:52:44;;;;;;;35.73;14.75;;;;;;;-7.95;100.00;101572.72;1723138;83;20105;-68
2022/12/05 06:55:11;;;;;;;35.23;13.18;;;;;;;-7.92;100.00;101565.89;1723249;83;21461;-69
2022/12/05 06:57:38;;;;;;;42.50;17.87;;;;;;;-7.87;100.00;101574.34;1744011;82;21055;-69
2022/12/05 07:02:52;;;;;;;16.97;8.43;;;;;;;-7.77;100.00;101566.13;1684618;85;21103;-69
2022/12/05 07:05:18;;;;;;;41.65;17.07;;;;;;;-7.74;100.00;101569.39;1751386;82;21078;-68
2022/12/05 07:07:45;;;;;;;14.38;7.22;;;;;;;-7.70;100.00;101566.90;1751558;82;21051;-69
2022/12/05 07:10:11;;;;;;;27.70;12.30;;;;;;;-7.64;100.00;101566.92;1751257;82;21042;-69
2022/12/05 07:12:38;;;;;;;15.60;7.87;;;;;;;-7.57;100.00;101572.98;1722654;82;21348;-69
2022/12/05 07:15:05;;;;;;;22.45;7.90;;;;;;;-7.47;100.00;101571.83;1683558;85;21130;-69
2022/12/05 07:17:35;;;;;;;18.92;9.25;;;;;;;-7.40;100.00;101570.92;1722906;82;21134;-69
2022/12/05 07:20:01;;;;;;;23.57;10.38;;;;;;;-7.39;100.00;101577.88;1723153;82;21035;-69
2022/12/05 07:22:28;;;;;;;30.75;15.00;;;;;;;-7.38;100.00;101562.39;1749878;82;21087;-69
2022/12/05 07:24:54;;;;;;;15.88;7.53;;;;;;;-7.35;100.00;101568.30;1749483;82;21082;-68
2022/12/05 07:27:21;;;;;;;43.28;19.77;;;;;;;-7.28;100.00;101572.18;1682653;84;21779;-68
2022/12/05 07:29:49;;;;;;;16.70;7.90;;;;;;;-7.21;100.00;101576.53;1749233;82;21142;-67
2022/12/05 07:32:15;;;;;;;18.48;8.68;;;;;;;-7.13;100.00;101582.97;1683121;84;21067;-68
2022/12/05 07:34:41;;;;;;;23.02;8.30;;;;;;;-7.03;100.00;101585.77;1745475;81;21067;-68
2022/12/05 07:37:08;;;;;;;18.62;8.45;;;;;;;-7.02;100.00;101584.81;1735675;82;21040;-68
2022/12/05 07:39:34;;;;;;;;;;;;;;;-6.95;100.00;101581.23;1738510;82;21087;-68
2022/12/05 07:42:01;;;;;;;46.30;22.37;;;;;;;-6.93;100.00;101574.84;1735847;82;20512;-67
2022/12/05 07:44:27;;;;;;;18.92;8.40;;;;;;;-6.97;100.00;101574.70;1672599;86;21088;-68
2022/12/05 07:46:53;;;;;;;13.78;8.28;;;;;;;-6.91;100.00;101571.63;1736256;82;21019;-68
2022/12/05 07:49:20;;;;;;;19.10;8.80;;;;;;;-6.87;100.00;101577.02;1673064;85;22213;-68
2022/12/05 07:51:47;;;;;;;19.20;10.25;;;;;;;-6.83;100.00;101574.52;1736085;82;21578;-68
2022/12/05 07:54:13;;;;;;;41.40;21.02;;;;;;;-6.79;100.00;101571.16;1736414;82;21060;-68
2022/12/05 07:56:40;;;;;;;27.32;12.00;;;;;;;-6.75;100.00;101574.78;1673550;85;21514;-68
2022/12/05 07:59:07;;;;;;;24.45;10.48;;;;;;;-6.67;100.00;101572.41;1673103;86;21108;-68
2022/12/05 08:01:33;;;;;;;51.58;23.90;;;;;;;-6.66;100.00;101578.55;1736773;82;21569;-68
2022/12/05 08:04:00;;;;;;;21.05;10.35;;;;;;;-6.64;100.00;101584.09;1673610;86;21079;-68
2022/12/05 08:06:27;;;;;;;;;;;;;;;-6.56;100.00;101581.71;1676204;85;21087;-68
2022/12/05 08:08:54;;;;;;;23.20;10.50;;;;;;;-6.51;100.00;101583.14;1697243;84;20139;-68
2022/12/05 08:11:29;;;;;;;19.27;9.03;;;;;;;-6.53;100.00;101577.13;1696830;84;21067;-68
2022/12/05 08:13:56;;;;;;;22.60;10.98;;;;;;;-6.47;100.00;101570.02;1696608;84;21123;-68
2022/12/05 08:16:26;;;;;;;20.02;10.15;;;;;;;-6.48;100.00;101567.03;1673202;86;21076;-68
2022/12/05 08:18:56;;;;;;;25.10;10.75;;;;;;;-6.44;100.00;101567.98;1736366;82;21134;-68
2022/12/05 08:21:24;;;;;;;23.20;10.50;;;;;;;-6.44;100.00;101567.98;1673065;85;21084;-68
2022/12/05 08:23:51;;;;;;;25.77;11.97;;;;;;;-6.41;100.00;101574.88;1736069;82;21103;-68
2022/12/05 08:26:23;;;;;;;22.58;10.23;;;;;;;-6.33;100.00;101560.52;1736050;82;21047;-68
2022/12/05 08:28:53;;;;;;;25.68;10.50;;;;;;;-6.27;100.00;101578.11;1736182;82;21362;-68
2022/12/05 08:31:22;;;;;;;23.50;10.98;;;;;;;-6.24;100.00;101563.80;1673677;85;21104;-68
2022/12/05 08:33:50;;;;;;;24.92;11.90;;;;;;;-6.23;100.00;101556.19;1674111;85;21078;-68
2022/12/05 08:36:18;;;;;;;25.60;11.63;;;;;;;-6.19;100.00;101560.29;1680405;85;21071;-68
2022/12/05 08:38:44;;;;;;;;;;;;;;;-6.10;100.00;101567.06;1684098;85;21115;-68
2022/12/05 08:41:13;;;;;;;23.12;11.48;;;;;;;-6.04;100.00;101564.40;1697491;84;20131;-68
2022/12/05 08:43:40;;;;;;;33.73;16.57;;;;;;;-6.08;100.00;101557.64;1697408;84;21055;-68
2022/12/05 08:46:06;;;;;;;25.37;13.80;;;;;;;-6.06;100.00;101555.23;1745567;82;21530;-68
2022/12/05 08:48:32;;;;;;;28.27;13.72;;;;;;;-6.00;100.00;101559.70;1681779;85;21032;-68
2022/12/05 08:50:59;;;;;;;25.50;11.78;;;;;;;-5.96;100.00;101551.38;1745479;82;21047;-68
2022/12/05 08:53:25;;;;;;;27.13;12.45;;;;;;;-5.93;100.00;101550.29;1654533;85;22172;-68
2022/12/05 08:55:52;;;;;;;25.92;11.48;;;;;;;-5.96;100.00;101550.53;1745614;82;21020;-68
2022/12/05 08:58:19;;;;;;;23.00;11.63;;;;;;;-5.96;100.00;101552.71;1745461;82;21103;-68
2022/12/05 09:00:46;;;;;;;21.25;11.22;;;;;;;-5.96;100.00;101550.06;1744517;82;21554;-69
2022/12/05 09:03:12;;;;;;;21.60;11.80;;;;;;;-5.92;100.00;101546.20;1744492;82;21048;-70
2022/12/05 09:05:40;;;;;;;34.83;17.17;;;;;;;-5.86;100.00;101536.42;1680508;85;21613;-70
2022/12/05 09:08:06;;;;;;;25.45;11.63;;;;;;;-5.78;100.00;101527.82;1681069;85;21112;-70
2022/12/05 09:10:33;;;;;;;26.93;14.63;;;;;;;-5.71;100.00;101531.19;1681931;85;21531;-69
2022/12/05 09:12:59;;;;;;;21.82;11.93;;;;;;;-5.70;100.00;101524.89;1745601;82;21064;-69
2022/12/05 09:15:25;;;;;;;25.68;12.43;;;;;;;-5.69;100.00;101522.61;1745794;82;21039;-70
2022/12/05 09:17:52;;;;;;;31.75;16.45;;;;;;;-5.62;100.00;101521.63;1745473;82;21111;-70
2022/12/05 09:20:18;;;;;;;26.27;12.88;;;;;;;-5.59;100.00;101522.70;1745807;82;20996;-67
2022/12/05 09:22:45;;;;;;;26.87;12.45;;;;;;;-5.52;100.00;101511.46;1716716;82;21114;-70
2022/12/05 09:25:12;;;;;;;;;;;;;;;-5.45;100.00;101507.81;1748332;82;21027;-68
2022/12/05 09:27:38;;;;;;;22.13;10.88;;;;;;;-5.42;100.00;101512.05;1745716;82;20103;-69
2022/12/05 09:30:06;;;;;;;25.92;12.45;;;;;;;-5.43;100.00;101500.59;1745673;82;21727;-69
2022/12/05 09:32:33;;;;;;;25.00;11.90;;;;;;;-5.38;100.00;101501.52;1745614;82;21051;-69
2022/12/05 09:35:00;;;;;;;21.77;11.68;;;;;;;-5.36;100.00;101497.78;1744306;82;21036;-68
2022/12/05 09:37:26;;;;;;;26.80;14.07;;;;;;;-5.38;100.00;101495.72;1674124;86;21044;-69
2022/12/05 09:39:53;;;;;;;40.00;21.62;;;;;;;-5.38;100.00;101494.39;1674341;85;21004;-69
2022/12/05 09:42:44;;;;;;;62.62;33.33;;;;;;;-5.29;100.00;101494.98;1674235;85;21113;-69
2022/12/05 09:45:22;;;;;;;29.52;13.65;;;;;;;-5.19;100.00;101490.59;1674129;86;21058;-69
2022/12/05 09:48:13;;;;;;;23.02;13.25;;;;;;;-5.13;100.00;101494.05;1737397;82;21594;-69
2022/12/05 09:50:49;;;;;;;33.65;16.82;;;;;;;-5.14;100.00;101491.05;1736754;82;21068;-69
2022/12/05 09:53:31;;;;;;;27.75;13.80;;;;;;;-5.08;100.00;101489.20;1737090;82;22417;-69
2022/12/05 09:56:26;;;;;;;27.58;17.10;;;;;;;-4.98;100.00;101495.05;1736305;82;21574;-69
2022/12/05 09:59:04;;;;;;;23.57;12.25;;;;;;;-4.92;100.00;101486.59;1736207;82;21076;-67
2022/12/05 10:01:40;;;;;;;20.62;12.55;;;;;;;-4.91;100.00;101484.27;1734873;82;22299;-70
2022/12/05 10:04:35;;;;;;;27.45;15.68;;;;;;;-4.93;100.00;101484.42;1672500;86;21108;-68
2022/12/05 10:07:34;;;;;;;45.25;23.18;;;;;;;-4.97;100.00;101480.33;1672587;86;21096;-68
2022/12/05 10:10:53;;;;;;;35.85;20.08;;;;;;;-4.94;100.00;101479.22;1672676;86;21068;-68
2022/12/05 10:13:43;;;;;;;21.93;12.55;;;;;;;-4.88;100.00;101467.59;1656361;86;21155;-68
2022/12/05 10:16:26;;;;;;;30.05;15.85;;;;;;;-4.90;100.00;101466.04;1672766;85;21135;-68
2022/12/05 10:18:57;;;;;;;25.50;14.07;;;;;;;-4.97;100.00;101472.37;1672383;86;21158;-68
2022/12/05 10:21:32;;;;;;;23.05;12.68;;;;;;;-4.97;100.00;101472.37;1672641;86;21099;-67
2022/12/05 10:24:01;;;;;;;21.40;12.78;;;;;;;-4.92;100.00;101470.14;1673878;85;21128;-68
2022/12/05 10:26:49;;;;;;;38.90;20.23;;;;;;;-4.93;100.00;101471.14;1674004;86;21038;-68
2022/12/05 10:29:33;;;;;;;36.25;19.32;;;;;;;-4.92;100.00;101475.97;1673049;86;21112;-69
2022/12/05 10:32:11;;;;;;;26.82;16.30;;;;;;;-4.86;100.00;101463.48;1672956;85;21087;-68
2022/12/05 10:34:39;;;;;;;29.10;15.78;;;;;;;-4.77;100.00;101458.70;1727463;82;21059;-69
2022/12/05 10:37:18;;;;;;;36.80;18.27;;;;;;;-4.73;100.00;101458.80;1736110;82;21119;-69
2022/12/05 10:39:46;;;;;;;32.35;16.15;;;;;;;-4.68;100.00;101454.79;1736565;82;21079;-69
2022/12/05 10:42:26;;;;;;;25.75;14.38;;;;;;;-4.65;100.00;101455.84;1673279;86;21127;-69
2022/12/05 10:44:59;;;;;;;25.00;14.13;;;;;;;-4.67;100.00;101451.13;1673398;85;21127;-69
2022/12/05 10:47:26;;;;;;;26.48;14.58;;;;;;;-4.67;100.00;101447.63;1673044;85;21697;-69
2022/12/05 10:49:53;;;;;;;23.50;13.45;;;;;;;-4.69;100.00;101447.78;1673843;86;21044;-68
2022/12/05 10:52:19;;;;;;;29.10;15.48;;;;;;;-4.68;100.00;101440.17;1673041;86;21163;-69
2022/12/05 10:54:54;;;;;;;32.80;19.32;;;;;;;-4.67;100.00;101437.84;1736314;82;21021;-69
2022/12/05 10:57:28;;;;;;;28.27;14.28;;;;;;;-4.60;100.00;101436.83;1734946;82;21649;-68
2022/12/05 10:59:55;;;;;;;25.88;13.98;;;;;;;-4.49;100.00;101435.89;1736464;82;21016;-69
2022/12/05 11:02:30;;;;;;;25.50;13.13;;;;;;;-4.46;100.00;101435.66;1735961;82;21411;-69
2022/12/05 11:04:58;;;;;;;33.53;17.85;;;;;;;-4.57;100.00;101440.06;1736058;82;21059;-69
2022/12/05 11:07:47;;;;;;;29.30;16.35;;;;;;;-4.65;100.00;101431.93;1672730;85;21139;-68
2022/12/05 11:10:32;;;;;;;22.73;13.40;;;;;;;-4.68;100.00;101429.55;1674210;85;20981;-69
2022/12/05 11:12:59;;;;;;;27.82;15.05;;;;;;;-4.69;100.00;101425.67;1673687;85;21139;-68
2022/12/05 11:15:28;;;;;;;23.10;12.95;;;;;;;-4.70;100.00;101426.16;1674050;86;21590;-69
2022/12/05 11:17:58;;;;;;;21.00;11.53;;;;;;;-4.70;100.00;101418.19;1674093;85;21135;-69
2022/12/05 11:20:31;;;;;;;21.50;12.45;;;;;;;-4.69;100.00;101421.69;1654772;86;21008;-69
2022/12/05 11:22:58;;;;;;;23.35;13.43;;;;;;;-4.70;100.00;101422.17;1673857;86;21485;-68
2022/12/05 11:25:34;;;;;;;28.47;15.10;;;;;;;-4.69;100.00;101408.41;1632570;86;21028;-69
2022/12/05 11:28:22;;;;;;;25.55;12.80;;;;;;;-4.64;100.00;101407.02;1737264;82;21055;-69
2022/12/05 11:31:07;;;;;;;21.00;11.43;;;;;;;-4.61;100.00;101397.48;1737591;82;21051;-69
2022/12/05 11:33:35;;;;;;;25.00;12.18;;;;;;;-4.64;100.00;101384.42;1737069;82;21066;-69
2022/12/05 11:36:22;;;;;;;23.75;13.60;;;;;;;-4.69;100.00;101390.66;1736532;82;21071;-68